createdAt,value
2023-02-22T00:00:43.239Z,69.47
2023-02-22T00:03:16.200Z,81.47
2023-02-22T00:05:47.212Z,76.30
2023-02-22T00:08:15.415Z,60.57
2023-02-22T00:10:41.849Z,60.87
2023-02-22T00:13:09.777Z,64.37
2023-02-22T00:15:36.504Z,81.43
2023-02-22T00:18:04.823Z,80.27
2023-02-22T00:20:31.167Z,89.60
2023-02-22T00:22:57.603Z,68.43
2023-02-22T00:25:24.824Z,81.37
2023-02-22T00:27:52.825Z,69.43
2023-02-22T00:30:27.025Z,76.03
2023-02-22T00:32:55.851Z,78.37
2023-02-22T00:35:25.692Z,69.17
2023-02-22T00:37:55.568Z,76.83
2023-02-22T00:40:24.797Z,68.83
2023-02-22T00:42:51.874Z,79.60
2023-02-22T00:45:24.053Z,66.33
2023-02-22T00:47:51.095Z,77.30
2023-02-22T00:50:18.804Z,86.07
2023-02-22T00:52:45.715Z,71.27
2023-02-22T00:55:24.827Z,81.67
2023-02-22T00:57:51.281Z,82.67
2023-02-22T01:00:24.288Z,73.07
2023-02-22T01:02:51.720Z,86.53
2023-02-22T01:05:23.897Z,77.33
2023-02-22T01:07:55.598Z,86.87
2023-02-22T01:10:24.803Z,76.30
2023-02-22T01:12:52.455Z,76.60
2023-02-22T01:15:23.789Z,80.07
2023-02-22T01:17:53.372Z,73.20
2023-02-22T01:20:22.726Z,71.30
2023-02-22T01:22:51.446Z,84.07
2023-02-22T01:25:22.058Z,73.00
2023-02-22T01:27:50.082Z,74.47
2023-02-22T01:30:21.835Z,93.00
2023-02-22T01:32:48.229Z,86.27
2023-02-22T01:35:18.381Z,84.80
2023-02-22T01:37:45.342Z,78.63
2023-02-22T01:40:20.222Z,76.90
2023-02-22T01:42:55.352Z,99.57
2023-02-22T01:45:30.790Z,105.67
2023-02-22T01:48:28.549Z,105.27
2023-02-22T01:51:03.461Z,93.00
2023-02-22T01:53:36.964Z,113.97
2023-02-22T01:56:04.514Z,87.23
2023-02-22T01:58:33.504Z,86.83
2023-02-22T02:01:01.049Z,87.50
2023-02-22T02:03:33.192Z,92.83
2023-02-22T02:06:02.725Z,91.63
2023-02-22T02:08:39.767Z,83.93
2023-02-22T02:11:09.223Z,100.00
2023-02-22T02:13:36.187Z,90.33
2023-02-22T02:16:02.540Z,92.60
2023-02-22T02:18:29.333Z,85.40
2023-02-22T02:21:24.074Z,102.03
2023-02-22T02:23:59.686Z,94.67
2023-02-22T02:27:02.927Z,79.13
2023-02-22T02:29:43.503Z,88.80
2023-02-22T02:32:59.847Z,80.07
2023-02-22T02:35:58.607Z,70.17
2023-02-22T02:38:50.603Z,80.33
2023-02-22T02:41:49.132Z,84.13
2023-02-22T02:44:37.815Z,95.90
2023-02-22T02:47:21.942Z,104.47
2023-02-22T02:49:54.833Z,111.60
2023-02-22T02:52:24.822Z,96.73
2023-02-22T02:54:52.746Z,92.27
2023-02-22T02:57:19.079Z,82.27
2023-02-22T02:59:46.295Z,86.07
2023-02-22T03:02:36.781Z,85.00
2023-02-22T03:05:12.942Z,105.23
2023-02-22T03:08:01.819Z,101.43
2023-02-22T03:10:37.652Z,83.10
2023-02-22T03:13:19.226Z,74.43
2023-02-22T03:16:16.612Z,78.97
2023-02-22T03:18:55.958Z,66.53
2023-02-22T03:21:31.483Z,108.03
2023-02-22T03:24:09.866Z,74.83
2023-02-22T03:26:43.387Z,88.13
2023-02-22T03:29:13.158Z,88.70
2023-02-22T03:31:43.546Z,81.93
2023-02-22T03:34:16.971Z,92.80
2023-02-22T03:36:49.981Z,79.27
2023-02-22T03:39:20.168Z,71.47
2023-02-22T03:41:51.296Z,144.97
2023-02-22T03:44:25.414Z,83.33
2023-02-22T03:46:56.640Z,76.30
2023-02-22T03:49:32.723Z,71.67
2023-02-22T03:52:01.023Z,69.23
2023-02-22T03:54:29.095Z,62.73
2023-02-22T03:57:00.802Z,80.40
2023-02-22T03:59:29.192Z,81.67
2023-02-22T04:01:56.887Z,75.63
2023-02-22T04:04:25.252Z,68.97
2023-02-22T04:06:52.444Z,51.73
2023-02-22T04:09:19.575Z,47.67
2023-02-22T04:11:45.988Z,44.70
2023-02-22T04:14:12.941Z,43.90
2023-02-22T04:16:39.670Z,101.40
2023-02-22T04:19:08.757Z,65.17
2023-02-22T04:21:37.535Z,91.93
2023-02-22T04:24:05.063Z,61.83
2023-02-22T04:26:31.946Z,72.83
2023-02-22T04:29:00.579Z,84.63
2023-02-22T04:31:33.989Z,51.23
2023-02-22T04:34:01.439Z,49.30
2023-02-22T04:36:31.752Z,40.03
2023-02-22T04:39:00.083Z,41.60
2023-02-22T04:41:28.517Z,51.07
2023-02-22T04:43:54.941Z,60.77
2023-02-22T04:46:23.592Z,65.57
2023-02-22T04:48:51.632Z,55.97
2023-02-22T04:51:21.020Z,79.80
2023-02-22T04:53:56.237Z,60.93
2023-02-22T04:56:22.686Z,62.13
2023-02-22T04:58:49.042Z,73.00
2023-02-22T05:01:16.481Z,53.73
2023-02-22T05:03:43.844Z,75.80
2023-02-22T05:06:12.283Z,100.73
2023-02-22T05:08:38.674Z,43.00
2023-02-22T05:11:05.682Z,66.13
2023-02-22T05:13:32.078Z,31.67
2023-02-22T05:15:58.460Z,40.27
2023-02-22T05:18:24.934Z,45.03
2023-02-22T05:20:51.313Z,33.00
2023-02-22T05:23:17.649Z,48.43
2023-02-22T05:25:44.380Z,37.67
2023-02-22T05:28:12.953Z,33.57
2023-02-22T05:30:39.852Z,36.97
2023-02-22T05:33:07.299Z,28.83
2023-02-22T05:35:33.802Z,35.60
2023-02-22T05:38:02.995Z,34.00
2023-02-22T05:40:30.192Z,42.63
2023-02-22T05:42:56.918Z,40.10
2023-02-22T05:45:25.850Z,47.57
2023-02-22T05:47:53.244Z,46.47
2023-02-22T05:50:20.964Z,45.63
2023-02-22T05:52:48.619Z,38.80
2023-02-22T05:55:18.260Z,39.70
2023-02-22T05:57:44.808Z,37.47
2023-02-22T06:00:16.366Z,30.90
2023-02-22T06:02:42.737Z,38.00
2023-02-22T06:05:09.161Z,50.60
2023-02-22T06:07:35.558Z,38.13
2023-02-22T06:10:01.976Z,38.57
2023-02-22T06:12:28.316Z,48.37
2023-02-22T06:14:54.775Z,34.23
2023-02-22T06:17:21.171Z,35.93
2023-02-22T06:19:47.531Z,51.63
2023-02-22T06:22:18.788Z,64.73
2023-02-22T06:24:45.233Z,52.70
2023-02-22T06:27:11.966Z,55.27
2023-02-22T06:29:38.337Z,40.27
2023-02-22T06:32:05.023Z,41.87
2023-02-22T06:34:31.486Z,46.67
2023-02-22T06:36:59.936Z,50.83
2023-02-22T06:39:26.436Z,65.93
2023-02-22T06:41:55.114Z,48.73
2023-02-22T06:44:21.947Z,47.10
2023-02-22T06:46:52.805Z,43.37
2023-02-22T06:49:20.351Z,48.63
2023-02-22T06:51:47.598Z,45.63
2023-02-22T06:54:14.491Z,38.93
2023-02-22T06:56:40.840Z,59.00
2023-02-22T06:59:08.330Z,43.90
2023-02-22T07:01:34.859Z,52.53
2023-02-22T07:04:01.275Z,48.37
2023-02-22T07:06:27.640Z,53.70
2023-02-22T07:08:54.641Z,42.17
2023-02-22T07:11:21.046Z,39.80
2023-02-22T07:13:47.367Z,46.87
2023-02-22T07:16:13.869Z,50.90
2023-02-22T07:18:40.195Z,45.40
2023-02-22T07:21:07.450Z,58.00
2023-02-22T07:23:33.838Z,52.00
2023-02-22T07:26:01.256Z,49.73
2023-02-22T07:28:27.589Z,62.37
2023-02-22T07:30:53.999Z,37.00
2023-02-22T07:33:20.482Z,46.87
2023-02-22T07:35:48.915Z,48.57
2023-02-22T07:38:17.813Z,44.37
2023-02-22T07:40:44.930Z,32.27
2023-02-22T07:43:19.595Z,61.63
2023-02-22T07:45:47.866Z,43.20
2023-02-22T07:48:17.337Z,53.77
2023-02-22T07:50:44.665Z,54.23
2023-02-22T07:53:18.004Z,44.90
2023-02-22T07:55:44.866Z,40.77
2023-02-22T07:58:15.252Z,77.97
2023-02-22T08:00:43.947Z,50.43
2023-02-22T08:03:13.133Z,52.07
2023-02-22T08:05:42.316Z,49.47
2023-02-22T08:08:08.966Z,65.37
2023-02-22T08:10:35.698Z,83.97
2023-02-22T08:13:02.860Z,87.23
2023-02-22T08:15:33.173Z,54.30
2023-02-22T08:18:01.079Z,61.13
2023-02-22T08:20:29.061Z,99.70
2023-02-22T08:22:56.222Z,126.50
2023-02-22T08:25:27.153Z,100.50
2023-02-22T08:27:58.734Z,82.13
2023-02-22T08:30:25.656Z,122.37
2023-02-22T08:32:52.275Z,50.60
2023-02-22T08:35:20.146Z,73.57
2023-02-22T08:37:48.986Z,62.77
2023-02-22T08:40:17.834Z,91.40
2023-02-22T08:42:44.337Z,63.37
2023-02-22T08:45:13.216Z,72.37
2023-02-22T08:47:40.361Z,69.03
2023-02-22T08:50:07.890Z,68.37
2023-02-22T08:52:35.020Z,67.27
2023-02-22T08:55:01.688Z,66.10
2023-02-22T08:57:28.060Z,52.90
2023-02-22T08:59:54.434Z,58.70
2023-02-22T09:02:22.286Z,63.87
2023-02-22T09:04:49.101Z,62.43
2023-02-22T09:07:15.626Z,58.17
2023-02-22T09:09:45.338Z,40.70
2023-02-22T09:12:12.080Z,43.67
2023-02-22T09:14:38.572Z,45.67
2023-02-22T09:17:05.968Z,55.70
2023-02-22T09:19:32.575Z,50.47
2023-02-22T09:22:02.120Z,48.17
2023-02-22T09:24:28.553Z,52.20
2023-02-22T09:26:55.235Z,46.93
2023-02-22T09:29:23.367Z,50.17
2023-02-22T09:31:52.887Z,50.80
2023-02-22T09:34:20.840Z,59.23
2023-02-22T09:36:48.067Z,49.87
2023-02-22T09:39:16.799Z,44.97
2023-02-22T09:42:05.687Z,45.73
2023-02-22T09:44:48.204Z,52.37
2023-02-22T09:47:19.884Z,48.13
2023-02-22T09:50:15.367Z,60.87
2023-02-22T09:53:22.029Z,55.20
2023-02-22T09:55:53.176Z,55.20
2023-02-22T09:58:26.859Z,56.47
2023-02-22T10:01:00.968Z,52.43
2023-02-22T10:03:36.512Z,53.77
2023-02-22T10:06:09.993Z,57.47
2023-02-22T10:08:41.438Z,46.90
2023-02-22T10:11:23.036Z,49.97
2023-02-22T10:13:57.916Z,47.20
2023-02-22T10:16:36.940Z,62.67
2023-02-22T10:19:28.256Z,44.30
2023-02-22T10:22:19.149Z,46.87
2023-02-22T10:24:45.477Z,45.03
2023-02-22T10:27:29.075Z,48.63
2023-02-22T10:30:23.326Z,35.83
2023-02-22T10:32:55.744Z,46.77
2023-02-22T10:35:27.885Z,51.97
2023-02-22T10:38:12.422Z,44.83
2023-02-22T10:40:39.238Z,38.00
2023-02-22T10:43:08.165Z,41.00
2023-02-22T10:45:36.885Z,41.63
2023-02-22T10:48:11.416Z,45.73
2023-02-22T10:50:41.451Z,54.63
2023-02-22T10:53:10.112Z,36.03
2023-02-22T10:55:57.300Z,30.03
2023-02-22T10:58:24.393Z,29.77
2023-02-22T11:00:51.576Z,27.90
2023-02-22T11:03:23.665Z,35.80
2023-02-22T11:05:50.709Z,36.43
2023-02-22T11:08:17.044Z,28.43
2023-02-22T11:10:43.471Z,26.67
2023-02-22T11:13:25.782Z,29.07
2023-02-22T11:15:54.318Z,25.87
2023-02-22T11:18:33.468Z,28.40
2023-02-22T11:21:10.122Z,28.10
2023-02-22T11:23:38.643Z,29.30
2023-02-22T11:26:14.216Z,35.30
2023-02-22T11:28:49.180Z,31.77
2023-02-22T11:31:18.011Z,25.37
2023-02-22T11:36:42.874Z,27.23
2023-02-22T11:39:34.101Z,19.60
2023-02-22T11:42:22.615Z,21.63
2023-02-22T11:44:50.745Z,22.47
2023-02-22T11:47:24.437Z,18.63
2023-02-22T11:49:53.342Z,26.63
2023-02-22T11:52:29.738Z,24.33
2023-02-22T11:55:09.879Z,25.67
2023-02-22T11:57:51.209Z,24.30
2023-02-22T12:00:36.311Z,23.30
2023-02-22T12:03:37.837Z,23.53
2023-02-22T12:06:16.423Z,21.47
2023-02-22T12:09:01.228Z,23.43
2023-02-22T12:12:03.864Z,27.47
2023-02-22T12:14:45.961Z,23.00
2023-02-22T12:17:32.209Z,21.50
2023-02-22T12:20:09.927Z,16.70
2023-02-22T12:22:46.018Z,19.47
2023-02-22T12:25:22.616Z,15.60
2023-02-22T12:27:54.012Z,17.83
2023-02-22T12:30:28.816Z,14.93
2023-02-22T12:32:59.918Z,13.27
2023-02-22T12:35:37.218Z,12.97
2023-02-22T12:38:22.950Z,19.73
2023-02-22T12:41:02.690Z,10.60
2023-02-22T12:43:35.603Z,10.57
2023-02-22T12:46:24.277Z,8.37
2023-02-22T12:49:01.303Z,8.27
2023-02-22T12:51:48.554Z,7.63
2023-02-22T12:54:31.915Z,7.27
2023-02-22T12:57:11.470Z,7.43
2023-02-22T12:59:55.735Z,7.63
2023-02-22T13:02:45.497Z,8.18
2023-02-22T13:05:20.503Z,7.17
2023-02-22T13:07:52.712Z,6.30
2023-02-22T13:10:44.418Z,8.30
2023-02-22T13:13:32.285Z,7.77
2023-02-22T13:16:10.704Z,8.63
2023-02-22T13:18:53.537Z,27.00
2023-02-22T13:21:23.627Z,20.50
2023-02-22T13:24:06.489Z,8.10
2023-02-22T13:26:35.807Z,13.37
2023-02-22T13:29:17.543Z,7.43
2023-02-22T13:31:53.187Z,7.50
2023-02-22T13:34:27.324Z,7.73
2023-02-22T13:37:19.783Z,7.90
2023-02-22T13:40:13.847Z,10.53
2023-02-22T13:43:14.778Z,7.37
2023-02-22T13:45:46.838Z,13.37
2023-02-22T13:48:39.759Z,7.87
2023-02-22T13:51:15.652Z,8.73
2023-02-22T13:53:50.262Z,13.43
2023-02-22T13:56:20.280Z,7.67
2023-02-22T13:58:49.865Z,7.70
2023-02-22T14:01:43.995Z,6.93
2023-02-22T14:04:20.930Z,6.53
2023-02-22T14:06:47.338Z,6.57
2023-02-22T14:09:19.096Z,6.37
2023-02-22T14:11:54.058Z,6.73
2023-02-22T14:14:20.865Z,8.87
2023-02-22T14:17:19.147Z,6.63
2023-02-22T14:20:01.080Z,7.90
2023-02-22T14:22:30.648Z,6.60
2023-02-22T14:24:58.276Z,9.67
2023-02-22T14:27:24.851Z,11.83
2023-02-22T14:29:57.403Z,8.63
2023-02-22T14:32:32.227Z,12.37
2023-02-22T14:35:04.315Z,13.27
2023-02-22T14:37:42.608Z,8.07
2023-02-22T14:40:27.601Z,9.17
2023-02-22T14:43:20.811Z,8.50
2023-02-22T14:45:54.902Z,7.90
2023-02-22T14:48:33.518Z,9.33
2023-02-22T14:51:15.650Z,8.77
2023-02-22T14:53:52.640Z,9.83
2023-02-22T14:56:41.024Z,8.90
2023-02-22T14:59:21.526Z,8.70
2023-02-22T15:02:01.744Z,8.63
2023-02-22T15:04:32.421Z,9.40
2023-02-22T15:07:01.084Z,10.33
2023-02-22T15:09:32.962Z,21.20
2023-02-22T15:12:03.899Z,14.23
2023-02-22T15:14:37.626Z,17.27
2023-02-22T15:17:22.732Z,13.63
2023-02-22T15:19:49.931Z,20.50
2023-02-22T15:22:30.066Z,11.53
2023-02-22T15:25:06.097Z,14.37
2023-02-22T15:27:36.869Z,22.00
2023-02-22T15:30:26.422Z,13.33
2023-02-22T15:33:04.125Z,14.60
2023-02-22T15:35:33.255Z,14.47
2023-02-22T15:38:11.554Z,19.37
2023-02-22T15:40:42.868Z,14.23
2023-02-22T15:43:24.042Z,13.43
2023-02-22T15:45:54.748Z,13.67
2023-02-22T15:48:21.317Z,19.73
2023-02-22T15:51:06.410Z,17.70
2023-02-22T15:53:47.766Z,17.33
2023-02-22T15:56:24.231Z,21.13
2023-02-22T15:58:51.595Z,17.27
2023-02-22T16:01:19.832Z,17.00
2023-02-22T16:03:51.261Z,20.37
2023-02-22T16:06:35.092Z,16.13
2023-02-22T16:09:25.256Z,23.47
2023-02-22T16:12:10.963Z,19.97
2023-02-22T16:14:40.063Z,17.00
2023-02-22T16:17:25.466Z,17.33
2023-02-22T16:19:52.854Z,17.50
2023-02-22T16:22:37.254Z,16.27
2023-02-22T16:25:30.946Z,22.53
2023-02-22T16:28:01.458Z,21.83
2023-02-22T16:30:34.378Z,19.10
2023-02-22T16:33:05.451Z,21.13
2023-02-22T16:35:35.282Z,22.57
2023-02-22T16:38:04.912Z,21.97
2023-02-22T16:40:36.003Z,23.20
2023-02-22T16:43:05.965Z,23.67
2023-02-22T16:45:32.829Z,20.67
2023-02-22T16:48:00.181Z,19.07
2023-02-22T16:50:26.684Z,16.13
2023-02-22T16:52:55.658Z,15.20
2023-02-22T16:55:22.355Z,36.10
2023-02-22T16:57:49.897Z,24.53
2023-02-22T17:00:30.918Z,20.27
2023-02-22T17:03:03.804Z,21.00
2023-02-22T17:05:31.741Z,24.87
2023-02-22T17:07:58.189Z,23.27
2023-02-22T17:10:25.989Z,27.37
2023-02-22T17:12:53.261Z,22.77
2023-02-22T17:15:24.593Z,18.33
2023-02-22T17:17:52.622Z,23.40
2023-02-22T17:20:31.608Z,33.57
2023-02-22T17:23:08.008Z,21.03
2023-02-22T17:25:42.333Z,24.30
2023-02-22T17:28:09.351Z,24.27
2023-02-22T17:30:36.368Z,22.70
2023-02-22T17:33:06.388Z,30.40
2023-02-22T17:35:36.987Z,23.77
2023-02-22T17:38:06.013Z,20.93
2023-02-22T17:40:39.790Z,24.10
2023-02-22T17:43:08.780Z,24.70
2023-02-22T17:45:38.281Z,25.77
2023-02-22T17:48:05.395Z,27.43
2023-02-22T17:50:31.803Z,20.03
2023-02-22T17:53:00.407Z,34.97
2023-02-22T17:55:27.502Z,30.30
2023-02-22T17:57:58.483Z,26.07
2023-02-22T18:00:34.000Z,24.50
2023-02-22T18:03:03.343Z,35.47
2023-02-22T18:05:32.874Z,35.43
2023-02-22T18:08:00.197Z,28.10
2023-02-22T18:10:27.154Z,29.77
2023-02-22T18:12:53.921Z,28.37
2023-02-22T18:15:23.471Z,33.70
2023-02-22T18:17:50.252Z,29.10
2023-02-22T18:20:30.815Z,27.07
2023-02-22T18:22:59.017Z,33.90
2023-02-22T18:25:26.539Z,30.17
2023-02-22T18:27:54.846Z,30.20
2023-02-22T18:30:21.714Z,43.20
2023-02-22T18:32:48.115Z,30.67
2023-02-22T18:35:14.461Z,28.60
2023-02-22T18:37:40.896Z,31.47
2023-02-22T18:40:10.519Z,35.77
2023-02-22T18:42:38.705Z,28.57
2023-02-22T18:45:07.155Z,36.03
2023-02-22T18:47:42.532Z,34.87
2023-02-22T18:50:10.649Z,41.70
2023-02-22T18:52:44.700Z,38.80
2023-02-22T18:55:19.242Z,41.20
2023-02-22T18:57:46.752Z,42.60
2023-02-22T19:00:16.103Z,41.97
2023-02-22T19:02:45.798Z,44.43
2023-02-22T19:05:17.191Z,40.67
2023-02-22T19:07:44.817Z,41.50
2023-02-22T19:10:11.322Z,42.63
2023-02-22T19:12:37.733Z,45.07
2023-02-22T19:15:04.410Z,46.37
2023-02-22T19:17:32.207Z,47.97
2023-02-22T19:19:58.601Z,51.50
2023-02-22T19:22:26.114Z,55.87
2023-02-22T19:24:56.296Z,52.80
2023-02-22T19:27:22.814Z,48.37
2023-02-22T19:29:49.870Z,52.43
2023-02-22T19:32:17.268Z,61.90
2023-02-22T19:34:44.002Z,58.50
2023-02-22T19:37:12.460Z,57.17
2023-02-22T19:39:39.010Z,54.77
2023-02-22T19:42:09.046Z,54.50
2023-02-22T19:44:36.863Z,60.47
2023-02-22T19:47:08.775Z,56.40
2023-02-22T19:49:37.062Z,61.07
2023-02-22T19:52:06.568Z,59.13
2023-02-22T19:54:33.530Z,56.67
2023-02-22T19:57:00.389Z,64.57
2023-02-22T19:59:27.339Z,52.60
2023-02-22T20:01:54.674Z,62.07
2023-02-22T20:04:21.566Z,59.80
2023-02-22T20:06:57.373Z,55.80
2023-02-22T20:09:29.702Z,50.37
2023-02-22T20:11:56.485Z,56.93
2023-02-22T20:14:25.934Z,52.37
2023-02-22T20:16:53.744Z,53.43
2023-02-22T20:19:22.398Z,54.37
2023-02-22T20:21:49.345Z,47.93
2023-02-22T20:24:18.110Z,59.37
2023-02-22T20:26:46.321Z,52.80
2023-02-22T20:29:13.757Z,49.20
2023-02-22T20:31:41.842Z,49.60
2023-02-22T20:34:09.683Z,53.53
2023-02-22T20:36:38.316Z,57.10
2023-02-22T20:39:13.030Z,55.07
2023-02-22T20:41:42.406Z,52.47
2023-02-22T20:44:12.001Z,73.83
2023-02-22T20:46:38.343Z,58.33
2023-02-22T20:49:11.021Z,55.07
2023-02-22T20:51:39.473Z,56.13
2023-02-22T20:54:06.543Z,61.57
2023-02-22T20:56:33.001Z,60.83
2023-02-22T20:59:02.438Z,52.73
2023-02-22T21:01:29.631Z,52.23
2023-02-22T21:04:00.973Z,54.93
2023-02-22T21:06:28.625Z,56.30
2023-02-22T21:08:57.910Z,56.13
2023-02-22T21:11:27.158Z,56.47
2023-02-22T21:13:53.843Z,54.30
2023-02-22T21:16:29.649Z,55.90
2023-02-22T21:18:58.939Z,56.77
2023-02-22T21:21:27.382Z,55.77
2023-02-22T21:23:56.203Z,53.77
2023-02-22T21:26:27.417Z,51.00
2023-02-22T21:28:54.970Z,66.80
2023-02-22T21:31:23.829Z,58.83
2023-02-22T21:33:52.710Z,70.80
2023-02-22T21:36:20.471Z,57.20
2023-02-22T21:38:53.060Z,53.50
2023-02-22T21:41:21.763Z,59.60
2023-02-22T21:43:50.144Z,57.80
2023-02-22T21:46:17.103Z,63.37
2023-02-22T21:48:48.807Z,59.03
2023-02-22T21:51:20.046Z,69.97
2023-02-22T21:53:52.242Z,65.13
2023-02-22T21:56:24.180Z,64.80
2023-02-22T21:58:58.989Z,70.07
2023-02-22T22:01:38.674Z,59.53
2023-02-22T22:04:05.134Z,57.23
2023-02-22T22:06:33.960Z,62.37
2023-02-22T22:09:00.345Z,62.03
2023-02-22T22:11:27.414Z,62.03
2023-02-22T22:13:57.323Z,65.17
2023-02-22T22:16:26.766Z,64.37
2023-02-22T22:18:54.718Z,65.10
2023-02-22T22:21:23.502Z,62.27
2023-02-22T22:23:54.164Z,75.03
2023-02-22T22:26:20.911Z,68.30
2023-02-22T22:28:49.626Z,72.30
2023-02-22T22:31:17.318Z,72.00
2023-02-22T22:33:44.776Z,80.67
2023-02-22T22:36:13.880Z,72.43
2023-02-22T22:38:40.338Z,69.57
2023-02-22T22:41:08.213Z,77.10
2023-02-22T22:43:36.467Z,70.07
2023-02-22T22:46:05.275Z,75.40
2023-02-22T22:48:35.880Z,81.97
2023-02-22T22:51:06.389Z,74.27
2023-02-22T22:53:34.082Z,74.67
2023-02-22T22:56:05.979Z,73.00
2023-02-22T22:58:33.806Z,76.87
2023-02-22T23:01:05.779Z,74.00
2023-02-22T23:03:38.316Z,78.07
2023-02-22T23:06:05.362Z,74.90
2023-02-22T23:08:42.852Z,78.40
2023-02-22T23:11:12.673Z,79.37
2023-02-22T23:13:39.505Z,78.30
2023-02-22T23:16:12.620Z,85.37
2023-02-22T23:18:43.047Z,86.43
2023-02-22T23:21:10.575Z,87.53
2023-02-22T23:23:37.868Z,84.70
2023-02-22T23:26:11.308Z,92.00
2023-02-22T23:28:39.362Z,77.30
2023-02-22T23:31:10.121Z,78.20
2023-02-22T23:33:38.170Z,84.30
2023-02-22T23:36:05.779Z,80.63
2023-02-22T23:38:34.665Z,85.17
2023-02-22T23:41:02.704Z,82.77
2023-02-22T23:43:32.435Z,79.87
2023-02-22T23:46:10.607Z,76.10
2023-02-22T23:48:46.553Z,77.73
2023-02-22T23:51:15.904Z,85.33
2023-02-22T23:53:45.955Z,82.27
2023-02-22T23:56:23.808Z,90.50
2023-02-22T23:58:51.784Z,77.47
